Time;durP1;ratioP1;P1;durP2;ratioP2;P2;SDS_P1;SDS_P2;PMS_P1;PMS_P2;Temp;Humidity;BMP_temperature;BMP_pressure;BME280_temperature;BME280_humidity;BME280_pressure;Samples;Min_cycle;Max_cycle;Signal;HPM_P1;HPM_P2
2022/12/03 00:01:44;;;;;;;126.70;17.33;;;;;;;;;;4982885;28;20038;-70
2022/12/03 00:04:10;;;;;;;209.50;23.02;;;;;;;;;;4982924;28;20153;-70
2022/12/03 00:06:35;;;;;;;157.20;19.92;;;;;;;;;;4983292;28;20057;-70
2022/12/03 00:09:01;;;;;;;171.15;18.48;;;;;;;;;;4982074;28;20054;-70
2022/12/03 00:11:26;;;;;;;189.48;22.00;;;;;;;;;;4982480;28;20062;-70
2022/12/03 00:13:52;;;;;;;210.10;23.85;;;;;;;;;;4982910;28;20077;-70
2022/12/03 00:16:17;;;;;;;304.98;27.05;;;;;;;;;;4983025;28;20074;-70
2022/12/03 00:18:43;;;;;;;258.40;25.80;;;;;;;;;;4982001;28;20042;-70
2022/12/03 00:21:08;;;;;;;185.68;23.40;;;;;;;;;;4982226;28;20042;-70
2022/12/03 00:23:33;;;;;;;127.63;16.77;;;;;;;;;;4982392;28;20049;-70
2022/12/03 00:25:59;;;;;;;259.00;27.30;;;;;;;;;;4982815;28;20085;-70
2022/12/03 00:28:24;;;;;;;172.07;21.52;;;;;;;;;;4982478;28;20439;-70
2022/12/03 00:30:52;;;;;;;145.70;20.80;;;;;;;;;;4981927;28;20515;-70
2022/12/03 00:33:19;;;;;;;154.07;20.42;;;;;;;;;;4981930;28;20061;-69
2022/12/03 00:35:44;;;;;;;140.38;20.10;;;;;;;;;;4982450;28;20042;-69
2022/12/03 00:38:10;;;;;;;125.97;20.88;;;;;;;;;;4982497;28;20503;-69
2022/12/03 00:40:35;;;;;;;130.07;18.30;;;;;;;;;;4982407;28;20046;-69
2022/12/03 00:43:01;;;;;;;185.50;23.95;;;;;;;;;;4981901;28;20419;-70
2022/12/03 00:45:26;;;;;;;208.73;19.77;;;;;;;;;;4981082;28;20050;-70
2022/12/03 00:47:52;;;;;;;139.65;16.17;;;;;;;;;;4982194;28;20145;-70
2022/12/03 00:50:17;;;;;;;200.75;20.02;;;;;;;;;;4982311;28;20141;-70
2022/12/03 00:52:42;;;;;;;145.77;18.33;;;;;;;;;;4981765;28;20053;-70
2022/12/03 00:55:08;;;;;;;368.90;24.60;;;;;;;;;;4981479;28;20053;-70
2022/12/03 00:57:34;;;;;;;228.15;21.67;;;;;;;;;;4982001;28;20819;-70
2022/12/03 01:00:00;;;;;;;303.83;27.15;;;;;;;;;;4982386;28;20077;-70
2022/12/03 01:02:26;;;;;;;165.18;18.02;;;;;;;;;;4981245;28;20045;-69
2022/12/03 01:04:51;;;;;;;131.50;18.80;;;;;;;;;;4981553;28;20042;-69
2022/12/03 01:07:17;;;;;;;172.95;21.70;;;;;;;;;;4980766;28;20539;-70
2022/12/03 01:09:42;;;;;;;74.80;12.55;;;;;;;;;;4981740;28;20057;-70
2022/12/03 01:12:08;;;;;;;225.30;19.67;;;;;;;;;;4981844;28;20058;-70
2022/12/03 01:14:33;;;;;;;137.10;17.02;;;;;;;;;;4980334;28;20049;-70
2022/12/03 01:16:59;;;;;;;213.02;19.70;;;;;;;;;;4980199;28;20093;-70
2022/12/03 01:19:24;;;;;;;240.35;21.20;;;;;;;;;;4979281;28;20042;-70
2022/12/03 01:21:50;;;;;;;200.02;17.02;;;;;;;;;;4979779;28;20167;-70
2022/12/03 01:24:17;;;;;;;127.05;17.10;;;;;;;;;;4979534;28;20050;-70
2022/12/03 01:26:43;;;;;;;118.13;17.60;;;;;;;;;;4979447;28;20053;-70
2022/12/03 01:29:08;;;;;;;167.75;18.85;;;;;;;;;;4981412;28;20046;-70
2022/12/03 01:34:18;;;;;;;114.68;14.82;;;;;;;;;;4981730;28;20155;-70
2022/12/03 01:36:43;;;;;;;210.82;16.98;;;;;;;;;;4980966;28;20046;-70
2022/12/03 01:39:09;;;;;;;109.65;13.35;;;;;;;;;;4980225;28;20069;-70
2022/12/03 01:41:35;;;;;;;251.38;20.55;;;;;;;;;;4981598;28;20082;-70
2022/12/03 01:44:03;;;;;;;133.95;17.35;;;;;;;;;;4981251;28;20046;-70
2022/12/03 01:46:38;;;;;;;100.80;15.15;;;;;;;;;;4981343;28;20057;-70
2022/12/03 01:49:04;;;;;;;98.95;15.75;;;;;;;;;;4979836;28;20054;-70
2022/12/03 01:51:29;;;;;;;119.40;17.05;;;;;;;;;;4981130;28;20057;-70
2022/12/03 01:53:55;;;;;;;80.90;9.32;;;;;;;;;;4980236;28;20834;-70
2022/12/03 01:56:21;;;;;;;102.10;15.05;;;;;;;;;;4981373;28;20917;-70
2022/12/03 01:58:46;;;;;;;92.07;13.75;;;;;;;;;;4980509;28;20042;-70
2022/12/03 02:01:17;;;;;;;143.77;14.80;;;;;;;;;;4979822;28;20046;-70
2022/12/03 02:03:44;;;;;;;165.77;17.38;;;;;;;;;;4981182;28;20046;-70
2022/12/03 02:06:16;;;;;;;122.43;15.18;;;;;;;;;;4981120;28;20047;-70
2022/12/03 02:08:42;;;;;;;122.95;15.05;;;;;;;;;;4980077;28;20163;-70
2022/12/03 02:11:30;;;;;;;108.32;15.15;;;;;;;;;;4980387;28;20042;-70
2022/12/03 02:14:06;;;;;;;42.85;9.15;;;;;;;;;;4981338;28;20046;-70
2022/12/03 02:16:34;;;;;;;157.18;15.00;;;;;;;;;;4982269;28;20486;-70
2022/12/03 02:18:59;;;;;;;161.30;16.70;;;;;;;;;;4984255;28;21098;-70
2022/12/03 02:21:49;;;;;;;148.07;14.38;;;;;;;;;;4984191;28;20088;-69
2022/12/03 02:24:49;;;;;;;113.53;13.82;;;;;;;;;;4985085;28;20042;-70
2022/12/03 02:27:14;;;;;;;150.20;15.73;;;;;;;;;;4967053;28;20058;-70
2022/12/03 02:29:40;;;;;;;124.88;14.93;;;;;;;;;;4980652;28;20120;-70
2022/12/03 02:32:05;;;;;;;217.45;17.42;;;;;;;;;;4984713;28;20408;-69
2022/12/03 02:34:39;;;;;;;174.25;13.90;;;;;;;;;;4983964;28;20146;-69
2022/12/03 02:37:07;;;;;;;125.78;14.23;;;;;;;;;;4984740;28;20046;-69
2022/12/03 02:39:36;;;;;;;141.20;16.95;;;;;;;;;;4984314;28;20073;-69
2022/12/03 02:44:47;;;;;;;173.88;16.50;;;;;;;;;;4982751;28;20049;-70
2022/12/03 02:47:13;;;;;;;169.25;16.38;;;;;;;;;;4984764;28;20050;-69
2022/12/03 02:49:39;;;;;;;164.02;20.25;;;;;;;;;;4984043;28;20050;-70
2022/12/03 02:52:04;;;;;;;92.13;16.00;;;;;;;;;;4984605;28;20539;-70
2022/12/03 02:54:30;;;;;;;160.05;16.88;;;;;;;;;;4983424;28;20046;-70
2022/12/03 02:56:55;;;;;;;291.55;24.52;;;;;;;;;;4983848;28;20046;-70
2022/12/03 02:59:21;;;;;;;115.90;16.60;;;;;;;;;;4984036;28;20526;-70
2022/12/03 03:01:47;;;;;;;113.80;17.35;;;;;;;;;;4984244;28;20054;-70
2022/12/03 03:04:12;;;;;;;100.97;15.82;;;;;;;;;;4984343;28;20101;-70
2022/12/03 03:06:53;;;;;;;182.32;16.33;;;;;;;;;;4950478;28;20058;-70
2022/12/03 03:09:19;;;;;;;95.07;15.40;;;;;;;;;;4983893;28;20124;-70
2022/12/03 03:11:45;;;;;;;103.70;15.55;;;;;;;;;;4984399;28;20050;-70
2022/12/03 03:14:10;;;;;;;200.32;20.83;;;;;;;;;;4983987;28;20061;-70
2022/12/03 03:16:36;;;;;;;152.15;15.40;;;;;;;;;;4983132;28;20454;-70
2022/12/03 03:19:02;;;;;;;69.00;12.57;;;;;;;;;;4983039;28;20048;-70
2022/12/03 03:21:28;;;;;;;74.10;16.10;;;;;;;;;;4984145;28;20158;-70
2022/12/03 03:23:53;;;;;;;143.05;14.93;;;;;;;;;;4982862;28;20042;-70
2022/12/03 03:26:19;;;;;;;57.50;13.00;;;;;;;;;;4983904;28;20077;-70
2022/12/03 03:28:49;;;;;;;75.97;14.93;;;;;;;;;;4982253;28;20479;-70
2022/12/03 03:31:19;;;;;;;66.32;14.90;;;;;;;;;;4983629;28;20053;-70
2022/12/03 03:33:46;;;;;;;49.33;14.18;;;;;;;;;;4983705;28;20034;-70
2022/12/03 03:36:13;;;;;;;48.78;15.75;;;;;;;;;;4983919;28;20831;-70
2022/12/03 03:38:40;;;;;;;94.30;16.60;;;;;;;;;;4982871;28;20153;-70
2022/12/03 03:41:07;;;;;;;118.75;17.13;;;;;;;;;;4983210;28;20046;-70
2022/12/03 03:43:35;;;;;;;125.45;19.67;;;;;;;;;;4984537;28;20668;-70
2022/12/03 03:46:03;;;;;;;70.05;14.90;;;;;;;;;;4985644;28;20047;-70
2022/12/03 03:48:29;;;;;;;71.82;15.45;;;;;;;;;;4984079;28;20046;-70
2022/12/03 03:50:55;;;;;;;120.25;14.68;;;;;;;;;;4982219;28;20076;-71
2022/12/03 03:53:21;;;;;;;89.05;17.30;;;;;;;;;;4983473;28;20053;-70
2022/12/03 03:55:47;;;;;;;78.47;15.45;;;;;;;;;;4983513;28;20661;-70
2022/12/03 03:58:13;;;;;;;93.22;17.08;;;;;;;;;;4982864;28;20085;-70
2022/12/03 04:00:44;;;;;;;86.53;16.92;;;;;;;;;;4982382;28;20049;-70
2022/12/03 04:03:09;;;;;;;100.50;15.15;;;;;;;;;;4983234;28;20108;-70
2022/12/03 04:05:35;;;;;;;68.30;14.68;;;;;;;;;;4983072;28;20046;-70
2022/12/03 04:08:00;;;;;;;122.80;18.83;;;;;;;;;;4997910;28;20046;-70
2022/12/03 04:13:10;;;;;;;87.88;17.50;;;;;;;;;;4979489;28;20077;-70
2022/12/03 04:15:35;;;;;;;105.40;18.35;;;;;;;;;;4982723;28;20038;-69
2022/12/03 04:20:45;;;;;;;83.47;19.55;;;;;;;;;;4982141;28;20050;-70
2022/12/03 04:23:10;;;;;;;72.82;18.98;;;;;;;;;;4982152;28;20065;-69
2022/12/03 04:35:41;;;;;;;82.97;19.33;;;;;;;;;;4980231;28;20165;-69
2022/12/03 04:36:35;;;;;;;77.93;17.08;;;;;;;;;;4982537;28;20747;-69
2022/12/03 04:39:00;;;;;;;99.50;19.27;;;;;;;;;;4995086;28;20057;-69
2022/12/03 04:41:25;;;;;;;64.72;17.35;;;;;;;;;;4981963;28;20050;-69
2022/12/03 04:46:35;;;;;;;90.10;18.58;;;;;;;;;;4982091;28;20058;-69
2022/12/03 04:49:00;;;;;;;119.78;22.45;;;;;;;;;;4981503;28;20058;-70
2022/12/03 04:51:25;;;;;;;87.88;18.30;;;;;;;;;;4982476;28;20129;-69
2022/12/03 04:53:51;;;;;;;110.50;21.17;;;;;;;;;;4982265;28;20472;-70
2022/12/03 04:56:16;;;;;;;93.45;18.75;;;;;;;;;;4982049;28;20051;-70
2022/12/03 04:58:42;;;;;;;116.00;20.08;;;;;;;;;;4981231;28;20081;-70
2022/12/03 05:01:07;;;;;;;87.38;20.90;;;;;;;;;;4981982;28;20080;-70
2022/12/03 05:03:33;;;;;;;68.43;18.05;;;;;;;;;;4981840;28;20050;-70
2022/12/03 05:05:58;;;;;;;134.45;21.52;;;;;;;;;;4981967;28;20054;-70
2022/12/03 05:08:24;;;;;;;101.70;20.23;;;;;;;;;;4980754;28;20056;-69
2022/12/03 05:10:50;;;;;;;120.55;20.70;;;;;;;;;;4981431;28;20513;-70
2022/12/03 05:13:15;;;;;;;75.95;18.17;;;;;;;;;;4988386;28;20050;-69
2022/12/03 05:15:40;;;;;;;65.53;16.60;;;;;;;;;;4980537;28;20042;-70
2022/12/03 05:18:06;;;;;;;85.28;23.50;;;;;;;;;;4980558;28;20093;-69
2022/12/03 05:20:40;;;;;;;77.05;19.00;;;;;;;;;;4981849;28;20089;-70
2022/12/03 05:23:07;;;;;;;75.90;20.75;;;;;;;;;;4981284;28;20056;-70
2022/12/03 05:25:32;;;;;;;118.82;24.20;;;;;;;;;;4982008;28;20109;-69
2022/12/03 05:27:57;;;;;;;93.70;23.15;;;;;;;;;;4981571;28;20042;-70
2022/12/03 05:30:23;;;;;;;92.32;23.63;;;;;;;;;;4994813;28;20057;-69
2022/12/03 05:32:49;;;;;;;114.70;22.10;;;;;;;;;;4980740;28;20057;-70
2022/12/03 05:35:14;;;;;;;95.15;22.02;;;;;;;;;;4979068;28;20052;-69
2022/12/03 05:37:40;;;;;;;87.07;21.30;;;;;;;;;;4981416;28;20054;-69
2022/12/03 05:40:06;;;;;;;83.55;20.27;;;;;;;;;;4992619;28;20130;-70
2022/12/03 05:45:17;;;;;;;65.80;18.88;;;;;;;;;;4978421;28;20499;-69
2022/12/03 05:47:42;;;;;;;87.53;19.42;;;;;;;;;;4981303;28;20123;-69
2022/12/03 05:50:08;;;;;;;65.47;16.33;;;;;;;;;;4976534;28;21137;-69
2022/12/03 05:52:34;;;;;;;56.40;16.90;;;;;;;;;;4979680;28;20049;-69
2022/12/03 05:54:59;;;;;;;77.13;20.08;;;;;;;;;;4980181;28;20407;-69
2022/12/03 05:57:27;;;;;;;82.30;22.40;;;;;;;;;;4994889;28;20057;-70
2022/12/03 05:59:52;;;;;;;73.72;21.15;;;;;;;;;;4979954;28;20042;-70
2022/12/03 06:02:18;;;;;;;91.20;23.23;;;;;;;;;;4979308;28;20057;-70
2022/12/03 06:04:43;;;;;;;79.68;22.23;;;;;;;;;;4979809;28;20112;-71
2022/12/03 06:07:09;;;;;;;58.55;18.42;;;;;;;;;;4980071;28;20133;-70
2022/12/03 06:09:34;;;;;;;98.70;21.88;;;;;;;;;;4980223;28;20042;-70
2022/12/03 06:12:00;;;;;;;114.28;22.92;;;;;;;;;;4980605;28;20130;-70
2022/12/03 06:14:25;;;;;;;65.47;19.27;;;;;;;;;;4980156;28;20934;-70
2022/12/03 06:16:51;;;;;;;100.97;18.90;;;;;;;;;;4979520;28;20030;-70
2022/12/03 06:19:16;;;;;;;102.50;22.95;;;;;;;;;;4980395;28;20046;-70
2022/12/03 06:21:42;;;;;;;82.10;23.50;;;;;;;;;;4979292;28;21107;-70
2022/12/03 06:24:07;;;;;;;86.80;23.40;;;;;;;;;;4980366;28;20093;-70
2022/12/03 06:26:33;;;;;;;69.13;21.35;;;;;;;;;;4980190;28;20081;-71
2022/12/03 06:28:58;;;;;;;80.32;20.73;;;;;;;;;;4980007;28;20054;-70
2022/12/03 06:31:24;;;;;;;92.88;22.23;;;;;;;;;;4980463;28;20050;-70
2022/12/03 06:33:49;;;;;;;75.53;22.17;;;;;;;;;;4980865;28;20522;-71
2022/12/03 06:36:15;;;;;;;68.32;21.23;;;;;;;;;;4978559;28;20042;-70
2022/12/03 06:38:40;;;;;;;85.75;22.73;;;;;;;;;;4978041;28;20046;-70
2022/12/03 06:41:06;;;;;;;92.60;21.02;;;;;;;;;;4978106;28;20050;-70
2022/12/03 06:43:31;;;;;;;83.55;21.92;;;;;;;;;;4976685;28;20070;-70
2022/12/03 06:45:57;;;;;;;59.00;19.02;;;;;;;;;;4977608;28;20096;-69
2022/12/03 06:48:22;;;;;;;78.95;21.65;;;;;;;;;;4977861;28;20038;-69
2022/12/03 06:50:48;;;;;;;135.93;31.65;;;;;;;;;;4977889;28;20056;-69
2022/12/03 06:53:13;;;;;;;124.43;21.77;;;;;;;;;;4979454;28;20965;-70
2022/12/03 06:55:39;;;;;;;94.55;22.27;;;;;;;;;;4979865;28;20047;-70
2022/12/03 06:58:04;;;;;;;81.03;21.17;;;;;;;;;;4979057;28;20035;-70
2022/12/03 07:00:29;;;;;;;74.72;20.25;;;;;;;;;;4979341;28;20046;-69
2022/12/03 07:02:55;;;;;;;79.05;21.83;;;;;;;;;;4981089;28;20049;-69
2022/12/03 07:05:20;;;;;;;53.45;15.93;;;;;;;;;;4983309;28;20395;-69
2022/12/03 07:07:50;;;;;;;80.53;22.65;;;;;;;;;;4982768;28;20047;-69
2022/12/03 07:10:17;;;;;;;56.58;18.58;;;;;;;;;;4981117;28;20881;-69
2022/12/03 07:12:42;;;;;;;65.68;19.23;;;;;;;;;;4983386;28;20096;-69
2022/12/03 07:15:09;;;;;;;87.30;22.23;;;;;;;;;;4983363;28;20052;-69
2022/12/03 07:17:34;;;;;;;54.90;17.60;;;;;;;;;;4980943;28;21158;-69
2022/12/03 07:20:00;;;;;;;75.65;20.23;;;;;;;;;;4981048;28;20034;-69
2022/12/03 07:22:25;;;;;;;60.78;19.52;;;;;;;;;;4981877;28;20540;-69
2022/12/03 07:24:50;;;;;;;53.35;18.38;;;;;;;;;;4974925;28;20070;-68
2022/12/03 07:27:16;;;;;;;62.22;18.35;;;;;;;;;;4976835;28;20153;-69
2022/12/03 07:29:41;;;;;;;78.35;23.58;;;;;;;;;;4976084;28;20060;-69
2022/12/03 07:32:07;;;;;;;65.85;21.75;;;;;;;;;;4980630;28;20172;-68
2022/12/03 07:34:32;;;;;;;56.85;19.58;;;;;;;;;;4979801;28;20046;-69
2022/12/03 07:36:58;;;;;;;74.80;21.02;;;;;;;;;;4980434;28;20504;-71
2022/12/03 07:39:23;;;;;;;67.38;18.73;;;;;;;;;;4980101;28;20196;-69
2022/12/03 07:41:49;;;;;;;59.85;18.25;;;;;;;;;;4979966;28;20149;-69
2022/12/03 07:44:14;;;;;;;50.25;18.23;;;;;;;;;;4980682;28;20053;-69
2022/12/03 07:46:41;;;;;;;58.38;18.85;;;;;;;;;;4979143;28;20042;-69
2022/12/03 07:49:06;;;;;;;56.13;16.42;;;;;;;;;;4980579;28;20100;-69
2022/12/03 07:51:32;;;;;;;52.42;19.17;;;;;;;;;;4979318;28;20046;-69
2022/12/03 07:53:57;;;;;;;67.80;24.00;;;;;;;;;;4979545;28;20054;-69
2022/12/03 07:56:23;;;;;;;54.80;18.83;;;;;;;;;;4979013;28;20065;-69
2022/12/03 07:58:48;;;;;;;46.13;16.60;;;;;;;;;;4979115;28;20050;-69
2022/12/03 08:01:14;;;;;;;46.40;16.30;;;;;;;;;;4978476;28;20054;-70
2022/12/03 08:03:41;;;;;;;43.47;15.38;;;;;;;;;;4979199;28;20050;-69
2022/12/03 08:06:07;;;;;;;94.53;38.15;;;;;;;;;;4979321;28;20538;-69
2022/12/03 08:08:33;;;;;;;74.70;29.92;;;;;;;;;;4976549;28;20046;-69
2022/12/03 08:11:00;;;;;;;67.68;23.20;;;;;;;;;;4978930;28;20061;-69
2022/12/03 08:13:26;;;;;;;55.10;18.25;;;;;;;;;;4978289;28;20054;-70
2022/12/03 08:15:55;;;;;;;62.15;22.23;;;;;;;;;;4978750;28;20377;-69
2022/12/03 08:18:21;;;;;;;47.92;16.73;;;;;;;;;;4979751;28;20503;-69
2022/12/03 08:20:49;;;;;;;48.67;15.68;;;;;;;;;;4980359;28;20052;-70
2022/12/03 08:23:17;;;;;;;57.75;20.50;;;;;;;;;;4978525;28;20085;-69
2022/12/03 08:25:44;;;;;;;59.72;19.15;;;;;;;;;;4981357;28;21001;-70
2022/12/03 08:28:18;;;;;;;65.40;20.50;;;;;;;;;;4981785;28;20113;-69
2022/12/03 08:31:00;;;;;;;57.13;17.85;;;;;;;;;;4981141;28;20783;-69
2022/12/03 08:33:29;;;;;;;72.28;19.92;;;;;;;;;;4982329;28;20069;-69
2022/12/03 08:35:55;;;;;;;55.63;19.35;;;;;;;;;;4981765;28;20042;-70
2022/12/03 08:38:23;;;;;;;65.68;21.73;;;;;;;;;;4982378;28;20407;-69
2022/12/03 08:40:51;;;;;;;55.45;18.05;;;;;;;;;;4981377;28;20046;-70
2022/12/03 08:43:27;;;;;;;53.42;18.20;;;;;;;;;;4981420;28;20069;-69
2022/12/03 08:45:54;;;;;;;64.70;19.42;;;;;;;;;;4980572;28;20042;-69
2022/12/03 08:48:33;;;;;;;48.90;17.80;;;;;;;;;;4979768;28;20042;-70
2022/12/03 08:51:22;;;;;;;46.65;16.75;;;;;;;;;;4980237;28;20050;-70
2022/12/03 08:53:51;;;;;;;50.70;17.23;;;;;;;;;;4979816;28;20061;-70
2022/12/03 08:56:28;;;;;;;49.75;17.58;;;;;;;;;;4980592;28;20125;-69
2022/12/03 08:59:01;;;;;;;53.78;18.38;;;;;;;;;;4978794;28;20069;-70
2022/12/03 09:01:35;;;;;;;48.47;17.92;;;;;;;;;;4982202;28;20863;-69
2022/12/03 09:04:18;;;;;;;48.03;16.30;;;;;;;;;;4982073;28;20046;-69
2022/12/03 09:06:43;;;;;;;;;;;;;;;;;;4982030;28;20054;-70
2022/12/03 09:09:08;;;;;;;51.08;16.00;;;;;;;;;;4980805;28;19976;-70
2022/12/03 09:11:34;;;;;;;52.78;17.80;;;;;;;;;;4981606;28;20046;-69
2022/12/03 09:13:59;;;;;;;59.58;18.35;;;;;;;;;;4980828;28;21318;-69
2022/12/03 09:16:25;;;;;;;66.88;20.48;;;;;;;;;;4980613;28;20049;-72
2022/12/03 09:18:50;;;;;;;42.88;15.75;;;;;;;;;;4980871;28;20440;-69
2022/12/03 09:21:16;;;;;;;53.78;20.85;;;;;;;;;;4980359;28;20053;-69
2022/12/03 09:23:41;;;;;;;57.90;22.05;;;;;;;;;;4981471;28;20042;-69
2022/12/03 09:26:06;;;;;;;50.33;20.30;;;;;;;;;;4981009;28;20050;-69
2022/12/03 09:28:32;;;;;;;61.95;21.90;;;;;;;;;;4980900;28;20053;-69
2022/12/03 09:30:57;;;;;;;50.25;19.83;;;;;;;;;;4980275;28;20068;-69
2022/12/03 09:33:23;;;;;;;41.35;16.00;;;;;;;;;;4979859;28;20061;-69
2022/12/03 09:35:48;;;;;;;42.38;17.42;;;;;;;;;;4979800;28;20046;-69
2022/12/03 09:38:14;;;;;;;50.35;18.13;;;;;;;;;;4981169;28;20054;-69
2022/12/03 09:40:40;;;;;;;42.25;17.25;;;;;;;;;;4980797;28;20416;-71
2022/12/03 09:43:05;;;;;;;46.95;18.33;;;;;;;;;;4978197;28;20217;-69
2022/12/03 09:45:31;;;;;;;40.58;17.58;;;;;;;;;;4980668;28;20563;-69
2022/12/03 09:47:56;;;;;;;39.90;15.40;;;;;;;;;;4980628;28;20042;-69
2022/12/03 09:50:25;;;;;;;52.78;22.23;;;;;;;;;;4980743;28;20088;-69
2022/12/03 09:52:55;;;;;;;37.97;16.15;;;;;;;;;;4975770;28;20046;-69
2022/12/03 09:55:24;;;;;;;36.05;16.10;;;;;;;;;;4979748;28;20066;-69
2022/12/03 09:57:53;;;;;;;38.72;16.23;;;;;;;;;;4980648;28;20445;-69
2022/12/03 10:00:25;;;;;;;38.50;14.95;;;;;;;;;;4979024;28;20046;-69
2022/12/03 10:02:55;;;;;;;38.55;15.50;;;;;;;;;;4979726;28;20061;-69
2022/12/03 10:05:21;;;;;;;42.88;15.90;;;;;;;;;;4980039;28;20054;-69
2022/12/03 10:07:51;;;;;;;45.90;18.85;;;;;;;;;;4980474;28;20034;-69
2022/12/03 10:10:20;;;;;;;37.38;13.25;;;;;;;;;;4979559;28;20066;-68
2022/12/03 10:12:45;;;;;;;36.42;15.05;;;;;;;;;;4979954;28;20038;-70
2022/12/03 10:15:17;;;;;;;42.42;17.55;;;;;;;;;;4979346;28;20042;-69
2022/12/03 10:17:43;;;;;;;48.57;17.67;;;;;;;;;;4979403;28;20125;-69
2022/12/03 10:20:17;;;;;;;38.55;15.23;;;;;;;;;;4979654;28;20984;-69
2022/12/03 10:22:42;;;;;;;43.80;16.75;;;;;;;;;;4978353;28;20058;-75
2022/12/03 10:25:15;;;;;;;40.80;15.75;;;;;;;;;;4977126;28;20108;-69
2022/12/03 10:27:41;;;;;;;46.78;16.88;;;;;;;;;;4977809;28;20050;-69
2022/12/03 10:30:18;;;;;;;48.25;18.55;;;;;;;;;;4976098;28;20046;-69
2022/12/03 10:32:47;;;;;;;136.10;44.58;;;;;;;;;;4979579;28;20047;-69
2022/12/03 10:35:22;;;;;;;47.28;17.63;;;;;;;;;;4979653;28;20065;-69
2022/12/03 10:38:03;;;;;;;44.97;17.20;;;;;;;;;;4980816;28;20049;-71
2022/12/03 10:40:31;;;;;;;87.80;30.83;;;;;;;;;;4983834;28;20092;-69
2022/12/03 10:43:18;;;;;;;100.07;34.13;;;;;;;;;;4983190;28;20046;-69
2022/12/03 10:46:08;;;;;;;43.58;17.73;;;;;;;;;;4982138;28;20042;-69
2022/12/03 10:48:33;;;;;;;40.17;17.83;;;;;;;;;;4983081;28;20050;-69
2022/12/03 10:51:03;;;;;;;51.63;19.85;;;;;;;;;;4983536;28;20495;-69
2022/12/03 10:53:31;;;;;;;60.90;25.45;;;;;;;;;;4984722;28;20213;-69
2022/12/03 10:55:59;;;;;;;46.33;17.58;;;;;;;;;;4984335;28;20046;-69
2022/12/03 10:58:30;;;;;;;65.47;25.13;;;;;;;;;;4983998;28;20192;-70
2022/12/03 11:00:57;;;;;;;51.97;19.93;;;;;;;;;;4982341;28;20050;-68
2022/12/03 11:03:24;;;;;;;51.70;21.65;;;;;;;;;;4983848;28;20128;-68
2022/12/03 11:05:51;;;;;;;48.28;18.85;;;;;;;;;;4984022;28;20104;-71
2022/12/03 11:08:25;;;;;;;31.75;14.23;;;;;;;;;;4984710;28;20054;-71
2022/12/03 11:10:57;;;;;;;46.08;20.92;;;;;;;;;;4978161;28;20046;-68
2022/12/03 11:13:48;;;;;;;31.48;14.18;;;;;;;;;;4983074;28;20545;-68
2022/12/03 11:16:45;;;;;;;44.58;18.27;;;;;;;;;;4983704;28;20133;-68
2022/12/03 11:19:17;;;;;;;49.20;19.33;;;;;;;;;;4981494;28;20065;-69
2022/12/03 11:22:04;;;;;;;59.05;24.33;;;;;;;;;;4982627;28;20530;-69
2022/12/03 11:24:31;;;;;;;41.50;17.55;;;;;;;;;;4983415;28;20084;-69
2022/12/03 11:26:57;;;;;;;45.78;20.27;;;;;;;;;;4982864;28;20150;-69
2022/12/03 11:29:48;;;;;;;27.55;11.63;;;;;;;;;;4983215;28;20054;-69
2022/12/03 11:32:42;;;;;;;37.53;15.23;;;;;;;;;;4965819;28;20133;-67
2022/12/03 11:35:22;;;;;;;50.22;17.95;;;;;;;;;;4983324;28;20042;-67
2022/12/03 11:37:47;;;;;;;47.85;19.70;;;;;;;;;;4987714;28;20210;-67
2022/12/03 11:40:15;;;;;;;55.72;22.67;;;;;;;;;;4982158;28;20216;-67
2022/12/03 11:42:42;;;;;;;59.10;23.35;;;;;;;;;;4980988;28;20129;-67
2022/12/03 11:45:07;;;;;;;59.65;24.63;;;;;;;;;;4981067;28;20495;-67
2022/12/03 11:47:39;;;;;;;56.17;21.05;;;;;;;;;;4976868;28;20780;-68
2022/12/03 11:50:26;;;;;;;55.20;22.98;;;;;;;;;;4977137;28;20046;-67
2022/12/03 11:53:00;;;;;;;52.92;21.25;;;;;;;;;;4979541;28;20045;-68
2022/12/03 11:55:33;;;;;;;56.38;20.45;;;;;;;;;;4980841;28;20518;-68
2022/12/03 11:58:04;;;;;;;41.67;18.55;;;;;;;;;;4981926;28;20122;-68
2022/12/03 12:00:30;;;;;;;54.42;18.00;;;;;;;;;;4980282;28;20045;-68
2022/12/03 12:02:56;;;;;;;51.65;19.50;;;;;;;;;;4996465;28;20061;-68
2022/12/03 12:05:33;;;;;;;49.20;18.98;;;;;;;;;;4977936;28;20189;-68
2022/12/03 12:08:01;;;;;;;42.85;16.42;;;;;;;;;;4980179;28;20061;-67
2022/12/03 12:10:47;;;;;;;39.55;16.77;;;;;;;;;;4981244;28;20143;-68
2022/12/03 12:13:26;;;;;;;41.35;15.93;;;;;;;;;;4989901;28;20518;-68
2022/12/03 12:15:52;;;;;;;46.83;17.50;;;;;;;;;;4981662;28;20050;-68
2022/12/03 12:18:43;;;;;;;38.95;16.77;;;;;;;;;;4982554;28;20046;-67
2022/12/03 12:21:46;;;;;;;49.90;18.30;;;;;;;;;;4982898;28;21135;-68
2022/12/03 12:24:31;;;;;;;50.95;19.38;;;;;;;;;;4983062;28;20054;-69
2022/12/03 12:26:59;;;;;;;47.50;18.20;;;;;;;;;;4981723;28;20046;-68
2022/12/03 12:29:24;;;;;;;46.05;16.27;;;;;;;;;;4982830;28;20050;-68
2022/12/03 12:31:51;;;;;;;49.35;18.05;;;;;;;;;;4983053;28;20050;-67
2022/12/03 12:34:17;;;;;;;46.72;15.80;;;;;;;;;;4983408;28;20225;-68
2022/12/03 12:36:43;;;;;;;45.83;17.52;;;;;;;;;;4983239;28;20081;-69
2022/12/03 12:39:14;;;;;;;41.47;16.95;;;;;;;;;;4982092;28;20081;-69
2022/12/03 12:41:41;;;;;;;52.00;17.95;;;;;;;;;;4983096;28;20120;-67
2022/12/03 12:44:09;;;;;;;44.47;15.40;;;;;;;;;;4983302;28;20038;-67
2022/12/03 12:46:36;;;;;;;37.75;15.13;;;;;;;;;;4983268;28;20046;-67
2022/12/03 12:49:11;;;;;;;50.78;16.90;;;;;;;;;;4981490;28;20578;-68
2022/12/03 12:51:45;;;;;;;49.50;19.27;;;;;;;;;;4982872;28;20130;-67
2022/12/03 12:54:13;;;;;;;58.00;20.05;;;;;;;;;;4978701;28;20085;-68
2022/12/03 12:56:41;;;;;;;57.42;19.33;;;;;;;;;;4979756;28;20070;-67
2022/12/03 12:59:15;;;;;;;40.78;16.73;;;;;;;;;;4978173;28;20046;-67
2022/12/03 13:01:41;;;;;;;46.88;17.20;;;;;;;;;;4974274;28;20069;-67
2022/12/03 13:04:22;;;;;;;46.50;18.58;;;;;;;;;;4980195;28;21026;-69
2022/12/03 13:06:51;;;;;;;45.25;17.02;;;;;;;;;;4978546;28;20546;-67
2022/12/03 13:09:20;;;;;;;44.92;16.90;;;;;;;;;;4979210;28;20043;-67
2022/12/03 13:11:51;;;;;;;29.85;11.85;;;;;;;;;;4977909;28;20145;-67
2022/12/03 13:14:22;;;;;;;47.45;18.02;;;;;;;;;;4979728;28;20046;-67
2022/12/03 13:16:49;;;;;;;47.25;17.98;;;;;;;;;;4977299;28;20563;-68
2022/12/03 13:19:25;;;;;;;43.22;16.17;;;;;;;;;;4980024;28;20404;-67
2022/12/03 13:21:53;;;;;;;40.10;15.73;;;;;;;;;;4968313;28;20054;-67
2022/12/03 13:24:38;;;;;;;45.75;18.30;;;;;;;;;;4978819;28;20057;-67
2022/12/03 13:27:12;;;;;;;45.15;15.85;;;;;;;;;;4979581;28;20525;-67
2022/12/03 13:29:38;;;;;;;40.72;16.92;;;;;;;;;;4978624;28;20045;-67
2022/12/03 13:32:14;;;;;;;47.60;18.23;;;;;;;;;;4979618;28;20046;-67
2022/12/03 13:34:40;;;;;;;43.65;16.55;;;;;;;;;;4979722;28;20073;-67
2022/12/03 13:37:15;;;;;;;43.17;17.20;;;;;;;;;;4979827;28;20054;-67
2022/12/03 13:39:49;;;;;;;42.58;16.40;;;;;;;;;;4978378;28;20519;-67
2022/12/03 13:42:37;;;;;;;39.10;16.10;;;;;;;;;;4979965;28;20312;-67
2022/12/03 13:45:15;;;;;;;34.00;15.35;;;;;;;;;;4977533;28;20533;-69
2022/12/03 13:47:45;;;;;;;42.95;17.92;;;;;;;;;;4978737;28;20050;-69
2022/12/03 13:50:36;;;;;;;44.25;18.23;;;;;;;;;;4978011;28;20054;-69
2022/12/03 13:53:20;;;;;;;43.00;19.20;;;;;;;;;;4978781;28;20384;-67
2022/12/03 13:55:52;;;;;;;33.88;14.82;;;;;;;;;;4993050;28;20411;-70
2022/12/03 13:58:18;;;;;;;34.70;14.13;;;;;;;;;;4979242;28;20038;-66
2022/12/03 14:00:44;;;;;;;45.97;18.52;;;;;;;;;;4979994;28;20487;-69
2022/12/03 14:03:09;;;;;;;42.22;16.80;;;;;;;;;;4980274;28;20173;-68
2022/12/03 14:05:35;;;;;;;40.90;15.88;;;;;;;;;;4980576;28;20129;-68
2022/12/03 14:08:01;;;;;;;43.28;15.57;;;;;;;;;;4979074;28;20399;-68
2022/12/03 14:10:27;;;;;;;38.72;14.30;;;;;;;;;;4981433;28;20093;-68
2022/12/03 14:12:54;;;;;;;42.97;17.08;;;;;;;;;;4978041;28;20049;-68
2022/12/03 14:15:20;;;;;;;43.60;16.55;;;;;;;;;;4980766;28;20042;-68
2022/12/03 14:17:46;;;;;;;43.70;17.08;;;;;;;;;;4979854;28;20113;-70
2022/12/03 14:20:13;;;;;;;68.95;28.75;;;;;;;;;;4978988;28;20141;-68
2022/12/03 14:22:39;;;;;;;55.03;19.88;;;;;;;;;;4981033;28;20130;-68
2022/12/03 14:25:06;;;;;;;52.75;20.52;;;;;;;;;;4979965;28;20225;-68
2022/12/03 14:27:32;;;;;;;54.03;21.45;;;;;;;;;;4980251;28;20081;-68
2022/12/03 14:29:58;;;;;;;54.88;19.13;;;;;;;;;;4980217;28;20066;-70
2022/12/03 14:32:24;;;;;;;57.28;20.58;;;;;;;;;;4980400;28;20230;-70
2022/12/03 14:34:50;;;;;;;64.05;22.80;;;;;;;;;;4980263;28;20557;-70
2022/12/03 14:37:15;;;;;;;49.05;20.45;;;;;;;;;;4980824;28;20058;-70
2022/12/03 14:39:41;;;;;;;43.97;16.63;;;;;;;;;;4980750;28;20101;-70
2022/12/03 14:42:12;;;;;;;45.65;18.65;;;;;;;;;;4980272;28;20133;-70
2022/12/03 14:44:45;;;;;;;46.95;18.27;;;;;;;;;;4977219;28;20522;-68
2022/12/03 14:47:11;;;;;;;52.67;19.42;;;;;;;;;;4980258;28;20129;-71